Time;durP1;ratioP1;P1;durP2;ratioP2;P2;SDS_P1;SDS_P2;PMS_P1;PMS_P2;Temp;Humidity;BMP_temperature;BMP_pressure;BME280_temperature;BME280_humidity;BME280_pressure;Samples;Min_cycle;Max_cycle;Signal;HPM_P1;HPM_P2
2022/01/05 00:02:09;;;;;;;3.83;0.80;;;4.10;99.90;;;;;;5039627;28;20044;-79
2022/01/05 00:04:35;;;;;;;0.33;0.33;;;4.10;99.90;;;;;;5040647;28;20116;-78
2022/01/05 00:07:02;;;;;;;7.83;1.70;;;4.10;99.90;;;;;;5056475;28;20052;-79
2022/01/05 00:09:27;;;;;;;0.47;0.47;;;4.10;99.90;;;;;;5064674;28;20047;-78
2022/01/05 00:11:53;;;;;;;11.70;1.23;;;4.10;99.90;;;;;;5064710;28;20044;-79
2022/01/05 00:14:19;;;;;;;5.70;1.03;;;4.10;99.90;;;;;;5064504;28;20046;-78
2022/01/05 00:16:44;;;;;;;23.37;2.07;;;4.10;99.90;;;;;;5064402;28;20067;-78
2022/01/05 00:19:10;;;;;;;7.20;1.50;;;4.10;99.90;;;;;;5061042;28;20399;-79
2022/01/05 00:21:36;;;;;;;3.47;1.50;;;4.10;99.90;;;;;;5048604;28;20080;-79
2022/01/05 00:24:02;;;;;;;8.18;1.80;;;4.10;99.90;;;;;;5050360;28;20041;-78
2022/01/05 00:26:27;;;;;;;4.78;1.48;;;4.10;99.90;;;;;;5063784;28;20523;-79
2022/01/05 00:28:54;;;;;;;5.17;1.33;;;4.20;99.90;;;;;;5062622;28;20058;-79
2022/01/05 00:31:20;;;;;;;6.97;0.73;;;4.20;99.90;;;;;;5043243;28;20553;-78
2022/01/05 00:33:45;;;;;;;10.05;1.75;;;4.20;99.90;;;;;;5057484;28;20048;-78
2022/01/05 00:36:11;;;;;;;2.35;1.42;;;4.20;99.90;;;;;;5064510;28;20478;-78
2022/01/05 00:38:37;;;;;;;5.00;1.65;;;4.20;99.90;;;;;;5063782;28;20052;-78
2022/01/05 00:41:04;;;;;;;5.00;2.13;;;4.20;99.90;;;;;;5063773;28;20080;-78
2022/01/05 00:43:30;;;;;;;3.00;1.60;;;4.20;99.90;;;;;;5063789;28;20482;-78
2022/01/05 00:45:56;;;;;;;10.68;2.22;;;4.20;99.90;;;;;;5063020;28;20044;-79
2022/01/05 00:48:21;;;;;;;0.63;0.63;;;4.20;99.90;;;;;;5051544;28;20119;-79
2022/01/05 00:50:47;;;;;;;6.67;2.17;;;4.20;99.90;;;;;;5044082;28;20040;-79
2022/01/05 00:53:12;;;;;;;2.30;1.13;;;4.20;99.90;;;;;;5057970;28;20098;-79
2022/01/05 00:55:38;;;;;;;1.10;0.55;;;4.10;99.90;;;;;;5050043;28;20376;-78
2022/01/05 00:58:04;;;;;;;0.97;0.53;;;4.20;99.90;;;;;;5044293;28;20037;-78
2022/01/05 01:00:29;;;;;;;3.80;1.20;;;4.20;99.90;;;;;;5042516;28;20436;-78
2022/01/05 01:02:55;;;;;;;3.70;1.20;;;4.20;99.90;;;;;;5057797;28;20044;-79
2022/01/05 01:05:20;;;;;;;3.00;1.43;;;4.20;99.90;;;;;;5062075;28;20052;-79
2022/01/05 01:07:46;;;;;;;0.35;0.35;;;4.20;99.90;;;;;;5063833;28;20049;-78
2022/01/05 01:10:13;;;;;;;8.70;1.03;;;4.20;99.90;;;;;;5063941;28;20044;-78
2022/01/05 01:12:39;;;;;;;4.40;0.60;;;4.20;99.90;;;;;;5063184;28;20868;-78
2022/01/05 01:15:06;;;;;;;1.00;0.87;;;4.20;99.90;;;;;;5047486;28;20068;-78
2022/01/05 01:17:32;;;;;;;2.07;1.33;;;4.20;99.90;;;;;;5043349;28;20499;-79
2022/01/05 01:19:58;;;;;;;7.63;1.40;;;4.20;99.90;;;;;;5062686;28;20128;-79
2022/01/05 01:22:24;;;;;;;3.60;1.90;;;4.10;99.90;;;;;;5060170;28;20132;-78
2022/01/05 01:24:50;;;;;;;2.03;1.17;;;4.10;99.90;;;;;;5043226;28;20044;-79
2022/01/05 01:27:15;;;;;;;5.33;2.03;;;4.10;99.90;;;;;;5043435;28;20037;-78
2022/01/05 01:29:41;;;;;;;5.93;1.27;;;4.10;99.90;;;;;;5043158;28;20051;-78
2022/01/05 01:32:07;;;;;;;2.63;1.50;;;4.10;99.90;;;;;;5042293;28;20049;-79
2022/01/05 01:34:32;;;;;;;5.13;1.60;;;4.10;99.90;;;;;;5042957;28;20455;-79
2022/01/05 01:36:58;;;;;;;2.23;1.00;;;4.10;99.90;;;;;;5043481;28;20037;-78
2022/01/05 01:39:23;;;;;;;2.13;1.43;;;4.10;99.90;;;;;;5041723;28;20387;-78
2022/01/05 01:41:49;;;;;;;3.70;1.50;;;4.10;99.90;;;;;;5050579;28;20054;-79
2022/01/05 01:44:16;;;;;;;6.67;1.93;;;4.10;99.90;;;;;;5051353;28;20044;-78
2022/01/05 01:46:42;;;;;;;1.35;0.73;;;4.10;99.90;;;;;;5042055;28;20049;-79
2022/01/05 01:49:08;;;;;;;14.53;1.63;;;4.10;99.90;;;;;;5043017;28;20048;-78
2022/01/05 01:51:33;;;;;;;7.43;1.30;;;4.20;99.90;;;;;;5042370;28;20045;-78
2022/01/05 01:54:00;;;;;;;5.30;1.57;;;4.10;99.90;;;;;;5042955;28;20083;-79
2022/01/05 01:56:29;;;;;;;1.77;1.57;;;4.10;99.90;;;;;;5042792;28;20132;-79
2022/01/05 01:58:54;;;;;;;1.20;1.17;;;4.10;99.90;;;;;;5058431;28;20055;-78
2022/01/05 02:01:20;;;;;;;1.10;1.07;;;4.10;99.90;;;;;;5061715;28;20041;-78
2022/01/05 02:03:46;;;;;;;0.47;0.47;;;4.10;99.90;;;;;;5048510;28;20037;-78
2022/01/05 02:06:12;;;;;;;8.60;1.53;;;4.10;99.90;;;;;;5042723;28;20061;-78
2022/01/05 02:08:37;;;;;;;9.03;2.33;;;4.10;99.90;;;;;;5042334;28;20045;-79
2022/01/05 02:11:06;;;;;;;2.43;1.47;;;4.10;99.90;;;;;;5059116;22;20107;-78
2022/01/05 02:13:32;;;;;;;1.37;0.47;;;4.10;99.90;;;;;;5021456;28;20080;-78
2022/01/05 02:15:57;;;;;;;2.47;1.77;;;4.10;99.90;;;;;;5022085;28;20046;-79
2022/01/05 02:20:57;;;;;;;1.55;1.45;;;4.10;99.90;;;;;;5022661;28;20046;-78
2022/01/05 02:23:22;;;;;;;3.60;1.13;;;4.10;99.90;;;;;;5022206;28;20049;-78
2022/01/05 02:25:48;;;;;;;7.20;1.37;;;4.20;99.90;;;;;;5022172;28;20064;-79
2022/01/05 02:28:13;;;;;;;1.50;1.37;;;4.20;99.90;;;;;;5021189;28;20423;-78
2022/01/05 02:30:39;;;;;;;2.63;1.03;;;4.20;99.90;;;;;;5020691;28;20127;-79
2022/01/05 02:33:05;;;;;;;20.90;1.63;;;4.20;99.90;;;;;;5021483;28;20053;-78
2022/01/05 02:35:30;;;;;;;2.63;0.83;;;4.20;99.90;;;;;;5020764;28;20072;-78
2022/01/05 02:37:56;;;;;;;1.10;1.00;;;4.20;99.90;;;;;;5022165;28;20384;-78
2022/01/05 02:40:23;;;;;;;0.93;0.93;;;4.30;99.90;;;;;;5021794;28;20392;-78
2022/01/05 02:42:51;;;;;;;0.50;0.50;;;4.30;99.90;;;;;;5021822;28;20048;-78
2022/01/05 02:45:17;;;;;;;1.60;1.50;;;4.40;99.90;;;;;;5019832;28;20041;-78
2022/01/05 02:47:42;;;;;;;5.63;1.83;;;4.40;99.90;;;;;;5021000;28;20470;-78
2022/01/05 02:50:11;;;;;;;1.93;1.43;;;4.40;99.90;;;;;;5021704;28;20045;-78
2022/01/05 02:52:37;;;;;;;2.43;1.13;;;4.40;99.90;;;;;;5021540;28;20661;-78
2022/01/05 02:55:03;;;;;;;5.38;2.03;;;4.40;99.90;;;;;;5022218;28;20042;-78
2022/01/05 02:57:29;;;;;;;1.13;1.00;;;4.40;99.90;;;;;;5021391;28;20140;-78
2022/01/05 02:59:55;;;;;;;0.37;0.37;;;4.40;99.90;;;;;;5021369;28;20138;-78
2022/01/05 03:02:21;;;;;;;2.77;1.13;;;4.40;99.90;;;;;;5021397;28;20905;-79
2022/01/05 03:04:47;;;;;;;1.08;1.08;;;4.40;99.90;;;;;;5020813;28;20638;-79
2022/01/05 03:07:15;;;;;;;0.65;0.65;;;4.40;99.90;;;;;;5004548;28;20052;-78
2022/01/05 03:09:40;;;;;;;0.93;0.93;;;4.40;99.90;;;;;;5020303;28;20419;-78
2022/01/05 03:12:07;;;;;;;8.90;2.20;;;4.40;99.90;;;;;;5019555;28;20071;-78
2022/01/05 03:14:32;;;;;;;1.17;1.07;;;4.40;99.90;;;;;;5021269;28;20041;-78
2022/01/05 03:16:58;;;;;;;1.43;1.03;;;4.40;99.90;;;;;;5020601;28;20487;-78
2022/01/05 03:19:23;;;;;;;1.80;1.17;;;4.50;99.90;;;;;;5021173;28;20048;-79
2022/01/05 03:21:49;;;;;;;2.90;0.93;;;4.50;99.90;;;;;;5021450;28;20037;-79
2022/01/05 03:24:15;;;;;;;2.33;0.57;;;4.50;99.90;;;;;;5022116;28;20095;-79
2022/01/05 03:26:40;;;;;;;4.90;1.17;;;4.50;99.90;;;;;;5019659;28;20056;-78
2022/01/05 03:29:06;;;;;;;3.55;0.50;;;4.40;99.90;;;;;;5021443;28;20077;-79
2022/01/05 03:31:31;;;;;;;0.57;0.57;;;4.40;99.90;;;;;;5020111;28;20088;-78
2022/01/05 03:33:57;;;;;;;1.75;0.43;;;4.40;99.90;;;;;;5020858;28;20050;-78
2022/01/05 03:36:23;;;;;;;2.75;0.90;;;4.30;99.90;;;;;;5019389;28;20072;-79
2022/01/05 03:38:48;;;;;;;1.80;1.35;;;4.30;99.90;;;;;;5021291;28;20037;-79
2022/01/05 03:41:14;;;;;;;6.97;1.55;;;4.30;99.90;;;;;;5020720;28;20034;-78
2022/01/05 03:43:40;;;;;;;0.65;0.63;;;4.30;99.90;;;;;;5020923;28;20076;-78
2022/01/05 03:46:05;;;;;;;1.50;0.63;;;4.30;99.90;;;;;;5020194;28;20068;-78
2022/01/05 03:48:31;;;;;;;5.40;1.33;;;4.30;99.90;;;;;;5020707;28;20874;-78
2022/01/05 03:50:56;;;;;;;0.63;0.57;;;4.30;99.90;;;;;;5021281;28;20060;-79
2022/01/05 03:53:22;;;;;;;3.67;1.83;;;4.30;99.90;;;;;;5020830;28;20542;-79
2022/01/05 03:55:48;;;;;;;3.63;1.08;;;4.30;99.90;;;;;;5020485;28;20379;-78
2022/01/05 03:58:14;;;;;;;5.70;0.40;;;4.30;99.90;;;;;;5021316;28;20047;-79
2022/01/05 04:00:48;;;;;;;1.47;0.97;;;4.30;99.90;;;;;;5020066;28;20112;-78
2022/01/05 04:03:14;;;;;;;5.35;1.42;;;4.40;99.90;;;;;;5021097;28;20693;-78
2022/01/05 04:05:41;;;;;;;3.45;1.55;;;4.40;99.90;;;;;;5020467;28;20038;-79
2022/01/05 04:08:07;;;;;;;10.88;2.08;;;4.40;99.90;;;;;;5020652;28;20248;-78
2022/01/05 04:10:33;;;;;;;1.75;1.02;;;4.40;99.90;;;;;;5019240;28;20498;-78
2022/01/05 04:12:59;;;;;;;5.93;1.02;;;4.40;99.90;;;;;;5020883;28;20092;-78
2022/01/05 04:15:25;;;;;;;3.88;1.52;;;4.40;99.90;;;;;;5019912;28;20522;-79
2022/01/05 04:17:50;;;;;;;9.77;1.50;;;4.50;99.90;;;;;;5020960;28;20492;-78
2022/01/05 04:20:16;;;;;;;5.97;1.33;;;4.50;99.90;;;;;;5021115;28;20785;-78
2022/01/05 04:22:43;;;;;;;3.20;1.23;;;4.50;99.90;;;;;;5020270;28;20431;-78
2022/01/05 04:25:09;;;;;;;14.73;1.90;;;4.50;99.90;;;;;;5020751;28;20045;-78
2022/01/05 04:27:35;;;;;;;4.45;1.35;;;4.50;99.90;;;;;;5020089;28;20045;-79
2022/01/05 04:30:01;;;;;;;4.90;1.73;;;4.50;99.90;;;;;;5017909;28;20049;-77
2022/01/05 04:32:26;;;;;;;1.08;0.73;;;4.50;99.90;;;;;;5020452;28;20600;-79
2022/01/05 04:34:52;;;;;;;1.87;1.20;;;4.50;99.90;;;;;;5020333;28;20065;-78
2022/01/05 04:37:19;;;;;;;3.22;1.25;;;4.50;99.90;;;;;;5020729;28;20096;-78
2022/01/05 04:39:45;;;;;;;13.68;1.33;;;4.50;99.90;;;;;;5020990;28;20038;-79
2022/01/05 04:42:11;;;;;;;2.55;0.70;;;4.50;99.90;;;;;;5019819;28;20443;-78
2022/01/05 04:44:36;;;;;;;0.57;0.57;;;4.50;99.90;;;;;;5019357;28;20213;-78
2022/01/05 04:47:02;;;;;;;1.05;0.93;;;4.50;99.90;;;;;;5020082;28;20239;-78
2022/01/05 04:49:28;;;;;;;0.65;0.65;;;4.50;99.90;;;;;;5020250;28;20048;-78
2022/01/05 04:51:53;;;;;;;2.55;1.75;;;4.60;99.90;;;;;;5020535;28;20483;-78
2022/01/05 04:54:19;;;;;;;1.55;1.20;;;4.60;99.90;;;;;;5022490;28;20045;-79
2022/01/05 04:56:45;;;;;;;5.38;1.20;;;4.60;99.90;;;;;;5007030;28;20040;-78
2022/01/05 04:59:10;;;;;;;1.38;0.80;;;4.60;99.90;;;;;;5023547;28;20431;-79
2022/01/05 05:01:36;;;;;;;8.70;2.22;;;4.60;99.90;;;;;;5023099;28;20041;-78
2022/01/05 05:04:02;;;;;;;6.32;0.93;;;4.60;99.90;;;;;;5024359;28;20488;-79
2022/01/05 05:06:27;;;;;;;11.00;1.17;;;4.60;99.90;;;;;;5022185;28;20041;-79
2022/01/05 05:08:53;;;;;;;4.13;1.20;;;4.60;99.90;;;;;;5022453;28;20064;-78
2022/01/05 05:11:18;;;;;;;2.70;1.52;;;4.60;99.90;;;;;;5023298;28;20045;-78
2022/01/05 05:13:44;;;;;;;16.40;3.10;;;4.60;99.90;;;;;;5023938;28;20046;-79
2022/01/05 05:16:09;;;;;;;11.23;2.17;;;4.60;99.90;;;;;;5022987;28;20034;-78
2022/01/05 05:18:35;;;;;;;5.88;0.63;;;4.60;99.90;;;;;;5023532;28;20534;-79
2022/01/05 05:21:01;;;;;;;4.07;1.83;;;4.60;99.90;;;;;;5022129;28;20092;-79
2022/01/05 05:23:27;;;;;;;19.48;2.55;;;4.70;99.90;;;;;;5023714;28;20034;-79
2022/01/05 05:25:53;;;;;;;3.72;2.17;;;4.70;99.90;;;;;;5023354;28;20049;-78
2022/01/05 05:28:19;;;;;;;0.95;0.77;;;4.70;99.90;;;;;;5022996;28;20037;-79
2022/01/05 05:30:44;;;;;;;7.35;2.60;;;4.70;99.90;;;;;;5022315;28;20121;-79
2022/01/05 05:33:10;;;;;;;5.05;1.48;;;4.70;99.90;;;;;;5023160;28;20053;-79
2022/01/05 05:35:35;;;;;;;1.33;1.30;;;4.70;99.90;;;;;;5022116;28;20107;-79
2022/01/05 05:38:01;;;;;;;4.68;1.75;;;4.70;99.90;;;;;;5022481;28;20045;-79
2022/01/05 05:40:27;;;;;;;1.80;1.67;;;4.70;99.90;;;;;;5023012;28;20044;-78
2022/01/05 05:42:53;;;;;;;4.05;1.88;;;4.70;99.90;;;;;;5023492;28;20045;-79
2022/01/05 05:45:18;;;;;;;4.65;2.40;;;4.70;99.90;;;;;;5020297;28;20072;-79
2022/01/05 05:47:44;;;;;;;14.27;1.98;;;4.70;99.90;;;;;;5023519;28;20042;-78
2022/01/05 05:50:10;;;;;;;6.22;1.23;;;4.70;99.90;;;;;;5023216;28;20111;-78
2022/01/05 05:52:35;;;;;;;5.00;1.55;;;4.80;99.90;;;;;;5022610;28;20133;-79
2022/01/05 05:55:01;;;;;;;23.48;2.58;;;4.80;99.90;;;;;;5023210;28;20638;-78
2022/01/05 05:57:27;;;;;;;3.47;0.73;;;4.90;99.90;;;;;;5022815;28;20045;-78
2022/01/05 05:59:52;;;;;;;8.80;2.28;;;4.90;99.90;;;;;;5021789;28;20038;-78
2022/01/05 06:02:18;;;;;;;0.45;0.45;;;4.90;99.90;;;;;;5023037;28;20041;-79
2022/01/05 06:04:44;;;;;;;5.50;1.45;;;4.90;99.90;;;;;;5020157;28;20041;-79
2022/01/05 06:07:09;;;;;;;2.40;1.05;;;4.90;99.90;;;;;;5013722;28;20057;-79
2022/01/05 06:09:35;;;;;;;0.40;0.40;;;4.90;99.90;;;;;;5037976;28;20045;-78
2022/01/05 06:12:01;;;;;;;1.30;1.23;;;4.90;99.90;;;;;;5021157;28;20137;-78
2022/01/05 06:14:26;;;;;;;7.40;1.38;;;4.80;99.90;;;;;;5020744;28;20490;-77
2022/01/05 06:16:52;;;;;;;2.22;1.10;;;4.80;99.90;;;;;;5022818;28;20037;-77
2022/01/05 06:19:17;;;;;;;1.08;0.93;;;4.80;99.90;;;;;;5020892;28;20095;-78
2022/01/05 06:21:44;;;;;;;3.55;1.48;;;4.80;99.90;;;;;;5023044;28;20092;-78
2022/01/05 06:24:10;;;;;;;9.43;1.95;;;4.70;99.90;;;;;;5022543;28;20091;-78
2022/01/05 06:26:36;;;;;;;2.85;0.98;;;4.70;99.90;;;;;;5021980;28;20645;-78
2022/01/05 06:29:01;;;;;;;2.35;1.00;;;4.70;99.90;;;;;;5004122;28;20041;-77
2022/01/05 06:31:27;;;;;;;3.55;1.60;;;4.70;99.90;;;;;;5021117;28;20064;-78
2022/01/05 06:33:52;;;;;;;0.60;0.60;;;4.70;99.90;;;;;;5022563;28;20041;-78
2022/01/05 06:36:18;;;;;;;0.30;0.30;;;4.70;99.90;;;;;;5022116;28;20548;-78
2022/01/05 06:38:44;;;;;;;7.45;2.53;;;4.70;99.90;;;;;;5022603;28;20487;-78
2022/01/05 06:41:09;;;;;;;1.60;1.15;;;4.70;99.90;;;;;;5022378;28;20056;-77
2022/01/05 06:43:35;;;;;;;0.65;0.65;;;4.80;99.90;;;;;;5021929;28;20084;-77
2022/01/05 06:46:00;;;;;;;4.57;1.85;;;4.80;99.90;;;;;;5019519;28;20132;-78
2022/01/05 06:48:26;;;;;;;1.98;1.17;;;4.90;99.90;;;;;;5020778;28;20418;-78
2022/01/05 06:50:52;;;;;;;7.60;1.05;;;4.90;99.90;;;;;;5021788;28;20037;-78
2022/01/05 06:53:17;;;;;;;1.35;0.90;;;4.90;99.90;;;;;;5020796;28;20077;-78
2022/01/05 06:55:43;;;;;;;5.10;0.77;;;5.00;99.90;;;;;;5022549;28;20080;-78
2022/01/05 06:58:08;;;;;;;0.63;0.63;;;5.00;99.90;;;;;;5020853;28;20411;-78
2022/01/05 07:00:34;;;;;;;1.38;1.27;;;5.00;99.90;;;;;;5020702;28;20507;-77
2022/01/05 07:03:00;;;;;;;3.40;1.15;;;5.10;99.90;;;;;;5020638;28;20046;-78
2022/01/05 07:05:26;;;;;;;11.63;2.22;;;5.10;99.90;;;;;;5021099;28;20037;-78
2022/01/05 07:07:51;;;;;;;13.00;1.50;;;5.10;99.90;;;;;;5021202;28;20736;-78
2022/01/05 07:10:17;;;;;;;1.30;1.23;;;5.10;99.90;;;;;;5020434;28;20468;-78
2022/01/05 07:12:43;;;;;;;0.63;0.63;;;5.10;99.90;;;;;;5020235;28;20115;-78
2022/01/05 07:15:10;;;;;;;1.02;0.63;;;5.10;99.90;;;;;;5019358;28;20073;-78
2022/01/05 07:17:36;;;;;;;19.42;1.85;;;5.10;99.90;;;;;;5020981;28;20041;-78
2022/01/05 07:20:04;;;;;;;7.93;1.40;;;5.10;99.90;;;;;;5019790;28;20095;-78
2022/01/05 07:22:30;;;;;;;5.10;1.35;;;5.20;99.90;;;;;;5019849;28;20076;-79
2022/01/05 07:24:56;;;;;;;2.42;1.80;;;5.10;99.90;;;;;;5021189;28;20127;-78
2022/01/05 07:27:22;;;;;;;1.30;1.20;;;5.10;99.90;;;;;;5021019;28;20111;-78
2022/01/05 07:29:48;;;;;;;17.75;3.30;;;5.10;99.90;;;;;;5020633;28;20037;-78
2022/01/05 07:32:14;;;;;;;5.22;1.35;;;5.10;99.90;;;;;;5020055;28;20454;-78
2022/01/05 07:34:39;;;;;;;1.45;1.20;;;5.20;99.90;;;;;;5020864;28;20046;-77
2022/01/05 07:37:05;;;;;;;0.75;0.50;;;5.20;99.90;;;;;;5021234;28;20061;-77
2022/01/05 07:39:31;;;;;;;0.47;0.47;;;5.10;99.90;;;;;;5021123;28;20043;-77
2022/01/05 07:41:56;;;;;;;2.00;0.77;;;5.10;99.90;;;;;;5021134;28;20073;-77
2022/01/05 07:44:22;;;;;;;1.55;0.88;;;5.10;99.90;;;;;;5019978;28;20072;-78
2022/01/05 07:46:48;;;;;;;5.47;1.65;;;5.00;99.90;;;;;;5020789;28;20092;-78
2022/01/05 07:49:13;;;;;;;8.27;2.15;;;5.00;99.90;;;;;;5021312;28;20046;-77
2022/01/05 07:51:39;;;;;;;12.00;2.10;;;5.10;99.90;;;;;;5019226;28;20585;-78
2022/01/05 07:54:05;;;;;;;9.23;1.90;;;5.10;99.90;;;;;;5021333;28;20578;-77
2022/01/05 07:56:30;;;;;;;20.85;2.13;;;5.20;99.90;;;;;;5020578;28;20199;-78
2022/01/05 07:58:56;;;;;;;4.10;1.75;;;5.20;99.90;;;;;;5020850;28;20091;-77
2022/01/05 08:01:21;;;;;;;12.80;1.02;;;5.30;99.90;;;;;;5020560;28;20511;-78
2022/01/05 08:03:48;;;;;;;2.97;1.17;;;5.30;99.90;;;;;;5020338;28;20042;-78
2022/01/05 08:06:14;;;;;;;2.85;0.60;;;5.30;99.90;;;;;;5020072;28;20050;-78
2022/01/05 08:08:40;;;;;;;4.78;0.93;;;5.30;99.90;;;;;;5019343;28;20384;-77
2022/01/05 08:11:06;;;;;;;0.80;0.43;;;5.20;99.90;;;;;;5020304;28;20060;-78
2022/01/05 08:13:32;;;;;;;3.40;0.52;;;5.20;99.90;;;;;;5020984;28;20045;-78
2022/01/05 08:15:57;;;;;;;0.40;0.40;;;5.20;99.90;;;;;;5020022;28;20033;-78
2022/01/05 08:18:23;;;;;;;3.85;1.05;;;5.10;99.90;;;;;;5019487;28;20546;-78
2022/01/05 08:20:49;;;;;;;2.28;0.63;;;5.10;99.90;;;;;;5020621;28;20045;-78
2022/01/05 08:23:23;;;;;;;2.38;0.85;;;5.10;99.90;;;;;;5021055;28;20571;-77
2022/01/05 08:25:49;;;;;;;10.15;2.25;;;5.10;99.90;;;;;;5019289;28;20045;-77
2022/01/05 08:28:16;;;;;;;7.68;0.95;;;5.10;99.90;;;;;;5023186;28;20048;-77
2022/01/05 08:30:44;;;;;;;17.30;1.60;;;5.20;99.90;;;;;;5022831;28;20260;-78
2022/01/05 08:33:10;;;;;;;3.13;1.15;;;5.20;99.90;;;;;;5024882;28;20414;-77
2022/01/05 08:35:36;;;;;;;2.28;1.65;;;5.30;99.90;;;;;;5022732;28;20148;-78
2022/01/05 08:38:03;;;;;;;2.40;0.95;;;5.30;99.90;;;;;;5024300;28;20041;-78
2022/01/05 08:40:30;;;;;;;3.58;1.52;;;5.40;99.90;;;;;;5022214;28;20045;-78
2022/01/05 08:42:56;;;;;;;2.03;1.38;;;5.40;99.90;;;;;;5024139;28;20072;-77
2022/01/05 08:45:23;;;;;;;0.77;0.77;;;5.50;99.90;;;;;;5023152;28;21628;-78
2022/01/05 08:47:51;;;;;;;8.27;2.08;;;5.50;99.90;;;;;;5023745;28;20203;-78
2022/01/05 08:50:20;;;;;;;25.00;2.15;;;5.50;99.90;;;;;;5023910;28;20041;-77
2022/01/05 08:52:46;;;;;;;14.77;2.58;;;5.60;99.90;;;;;;5023430;28;20056;-77
2022/01/05 08:55:13;;;;;;;2.10;1.15;;;5.60;99.90;;;;;;5023980;28;20065;-79
2022/01/05 08:57:40;;;;;;;8.48;2.35;;;5.70;99.90;;;;;;5038567;28;20798;-78
2022/01/05 09:00:07;;;;;;;1.08;1.02;;;5.70;99.90;;;;;;5022041;28;20377;-78
2022/01/05 09:02:33;;;;;;;7.90;1.85;;;5.80;99.90;;;;;;5022890;28;20053;-77
2022/01/05 09:04:59;;;;;;;2.30;1.98;;;5.80;99.90;;;;;;5005413;28;20056;-78
2022/01/05 09:07:24;;;;;;;3.30;1.58;;;5.80;99.90;;;;;;5003720;28;20046;-79
2022/01/05 09:09:50;;;;;;;4.50;2.50;;;5.70;99.90;;;;;;5007649;28;20492;-78
2022/01/05 09:12:16;;;;;;;9.00;2.47;;;5.80;99.90;;;;;;5015488;28;20436;-79
2022/01/05 09:14:41;;;;;;;17.38;3.08;;;5.80;99.90;;;;;;5022764;28;20045;-80
2022/01/05 09:17:08;;;;;;;11.88;3.40;;;5.80;99.90;;;;;;5023791;28;20424;-79
2022/01/05 09:19:34;;;;;;;4.95;2.05;;;5.80;99.90;;;;;;5022068;28;20042;-81
2022/01/05 09:22:01;;;;;;;3.58;2.35;;;5.80;99.90;;;;;;5023792;28;20102;-80
2022/01/05 09:24:26;;;;;;;5.05;2.88;;;5.80;99.90;;;;;;5023638;28;20038;-81
2022/01/05 09:26:52;;;;;;;8.23;2.88;;;5.80;99.90;;;;;;5022105;28;20057;-80
2022/01/05 09:29:18;;;;;;;12.15;1.77;;;5.90;99.90;;;;;;5022248;28;20041;-80
2022/01/05 09:31:44;;;;;;;12.70;1.83;;;5.90;99.90;;;;;;5023828;28;20034;-80
2022/01/05 09:34:10;;;;;;;3.00;1.25;;;5.90;99.90;;;;;;5018875;28;20042;-81
2022/01/05 09:36:42;;;;;;;15.20;2.72;;;5.90;99.90;;;;;;5003769;28;20887;-81
2022/01/05 09:42:05;;;;;;;1.58;1.20;;;6.00;99.90;;;;;;5022090;28;20514;-81
2022/01/05 09:44:33;;;;;;;6.13;2.63;;;6.00;99.90;;;;;;5020607;28;20049;-81
2022/01/05 09:47:11;;;;;;;6.75;2.38;;;6.00;99.90;;;;;;5022028;28;20041;-81
2022/01/05 09:49:39;;;;;;;12.60;2.75;;;6.00;99.90;;;;;;5023040;28;20201;-82
2022/01/05 09:52:08;;;;;;;19.55;1.45;;;6.00;99.90;;;;;;5010248;28;20100;-81
2022/01/05 09:54:36;;;;;;;9.70;1.95;;;6.10;99.90;;;;;;5003356;28;20074;-81
2022/01/05 09:57:02;;;;;;;11.02;2.03;;;6.10;99.90;;;;;;5003762;28;20073;-81
2022/01/05 09:59:32;;;;;;;1.88;1.00;;;6.10;99.90;;;;;;5002719;28;20397;-81
2022/01/05 10:01:58;;;;;;;12.13;2.63;;;6.10;99.90;;;;;;5002163;28;20112;-82
2022/01/05 10:04:24;;;;;;;4.60;1.38;;;6.10;99.90;;;;;;5003759;28;20511;-81
2022/01/05 10:06:50;;;;;;;12.25;1.17;;;6.20;99.90;;;;;;5015305;28;20034;-81
2022/01/05 10:09:16;;;;;;;4.22;1.48;;;6.10;99.90;;;;;;5021882;28;20411;-81
2022/01/05 10:11:42;;;;;;;2.90;1.65;;;6.10;99.90;;;;;;5010576;28;20129;-81
2022/01/05 10:14:11;;;;;;;8.57;1.85;;;6.20;99.90;;;;;;5020633;28;20093;-81
2022/01/05 10:16:37;;;;;;;4.93;1.70;;;6.20;99.90;;;;;;5013076;28;20045;-81
2022/01/05 10:19:03;;;;;;;0.55;0.50;;;6.20;99.90;;;;;;5021025;28;20484;-81
2022/01/05 10:21:38;;;;;;;5.07;1.60;;;6.20;99.90;;;;;;5020890;28;20033;-81
2022/01/05 10:24:04;;;;;;;9.13;1.60;;;6.20;99.90;;;;;;5021137;28;20038;-81
2022/01/05 10:26:36;;;;;;;1.20;0.88;;;6.20;99.90;;;;;;5020656;28;20045;-80
2022/01/05 10:29:14;;;;;;;8.45;1.02;;;6.20;99.90;;;;;;5018843;28;20071;-80
2022/01/05 10:31:41;;;;;;;0.47;0.47;;;6.20;99.90;;;;;;5020346;28;20522;-77
2022/01/05 10:34:21;;;;;;;0.28;0.28;;;6.20;99.90;;;;;;5019957;28;20045;-76
2022/01/05 10:36:48;;;;;;;16.00;1.05;;;6.20;99.90;;;;;;5019608;28;20053;-76
2022/01/05 10:39:15;;;;;;;0.73;0.73;;;6.20;99.90;;;;;;5020984;28;20045;-77
2022/01/05 10:41:43;;;;;;;1.58;0.60;;;6.20;99.90;;;;;;5014412;28;20970;-76
2022/01/05 10:44:20;;;;;;;3.75;0.95;;;6.20;99.90;;;;;;5010581;28;20053;-77
2022/01/05 10:46:49;;;;;;;0.57;0.57;;;6.20;99.90;;;;;;5033236;28;20280;-77
2022/01/05 10:49:44;;;;;;;5.22;1.73;;;6.20;99.90;;;;;;5021159;28;20049;-77
2022/01/05 10:52:33;;;;;;;13.07;1.73;;;6.20;99.90;;;;;;5013726;28;20053;-76
2022/01/05 10:55:12;;;;;;;5.07;1.48;;;6.20;99.90;;;;;;5007782;28;20064;-76
2022/01/05 10:57:38;;;;;;;3.58;1.38;;;6.20;99.90;;;;;;5020817;28;20127;-77
2022/01/05 11:00:06;;;;;;;8.18;1.58;;;6.30;99.90;;;;;;5007597;28;20044;-77
2022/01/05 11:02:34;;;;;;;8.68;1.88;;;6.30;99.90;;;;;;5010424;28;20037;-77
2022/01/05 11:05:09;;;;;;;7.80;1.63;;;6.30;99.90;;;;;;5019384;28;20490;-76
2022/01/05 11:07:39;;;;;;;2.25;1.17;;;6.40;99.90;;;;;;5009466;28;20158;-75
2022/01/05 11:10:11;;;;;;;5.45;0.82;;;6.40;99.90;;;;;;5019889;28;20045;-76
2022/01/05 11:12:40;;;;;;;0.40;0.40;;;6.50;99.90;;;;;;5020780;28;20435;-75
2022/01/05 11:15:21;;;;;;;7.82;2.20;;;6.40;99.90;;;;;;5020587;28;20427;-74
2022/01/05 11:18:11;;;;;;;0.38;0.38;;;6.20;99.90;;;;;;5019354;28;20045;-74
2022/01/05 11:20:42;;;;;;;6.63;0.93;;;6.10;99.90;;;;;;5020932;28;20654;-75
2022/01/05 11:23:08;;;;;;;1.80;0.85;;;6.00;99.90;;;;;;5021006;28;20128;-75
2022/01/05 11:25:36;;;;;;;3.03;0.63;;;6.00;99.90;;;;;;5019243;28;20121;-74
2022/01/05 11:28:07;;;;;;;4.75;1.23;;;6.00;99.90;;;;;;5015490;28;20045;-74
2022/01/05 11:30:34;;;;;;;0.95;0.93;;;5.90;99.90;;;;;;5019679;28;20060;-75
2022/01/05 11:33:00;;;;;;;5.82;1.10;;;5.90;99.90;;;;;;5036193;28;20112;-75
2022/01/05 11:35:27;;;;;;;3.13;1.38;;;6.00;99.90;;;;;;5020277;28;20532;-75
2022/01/05 11:37:52;;;;;;;2.33;1.48;;;6.00;99.90;;;;;;5021106;28;20451;-75
2022/01/05 11:40:18;;;;;;;14.60;0.95;;;6.10;99.90;;;;;;5020508;28;20037;-75
2022/01/05 11:42:48;;;;;;;8.57;1.90;;;6.20;99.90;;;;;;5020990;28;20048;-76
2022/01/05 11:45:27;;;;;;;7.25;0.88;;;6.20;99.90;;;;;;5019023;28;20033;-76
2022/01/05 11:48:18;;;;;;;19.30;2.55;;;6.20;99.90;;;;;;5019680;28;20040;-76
2022/01/05 11:50:52;;;;;;;4.65;1.30;;;6.30;99.90;;;;;;5010307;28;20175;-75
2022/01/05 11:53:43;;;;;;;2.53;1.30;;;6.40;99.90;;;;;;5005489;28;20123;-76
2022/01/05 11:56:22;;;;;;;2.28;0.75;;;6.40;99.90;;;;;;5007284;28;20432;-76
2022/01/05 11:58:57;;;;;;;1.52;1.27;;;6.50;99.90;;;;;;5018503;28;20490;-76
2022/01/05 12:01:27;;;;;;;3.00;1.92;;;6.50;99.90;;;;;;5008277;28;20088;-76
2022/01/05 12:03:58;;;;;;;11.60;1.38;;;6.50;99.90;;;;;;5020301;28;20042;-76
2022/01/05 12:06:32;;;;;;;9.80;1.52;;;6.60;99.90;;;;;;5017175;28;20519;-76
2022/01/05 12:09:17;;;;;;;1.50;1.35;;;6.60;99.90;;;;;;5013588;28;20041;-77
2022/01/05 12:11:43;;;;;;;10.05;1.33;;;6.50;99.90;;;;;;5016390;28;20088;-76
2022/01/05 12:14:21;;;;;;;1.95;1.08;;;6.40;99.90;;;;;;5017720;28;20500;-76
2022/01/05 12:17:02;;;;;;;2.45;0.82;;;6.30;99.90;;;;;;5019303;28;20041;-76
2022/01/05 12:19:34;;;;;;;0.43;0.43;;;6.30;99.90;;;;;;5019913;28;20046;-76
2022/01/05 12:22:07;;;;;;;4.97;1.60;;;6.20;99.90;;;;;;5020384;28;20535;-79
2022/01/05 12:25:03;;;;;;;3.00;1.55;;;6.10;99.90;;;;;;5019287;28;20050;-79
2022/01/05 12:27:35;;;;;;;1.55;1.27;;;6.10;99.90;;;;;;5019861;28;20052;-79
2022/01/05 12:30:21;;;;;;;7.93;0.93;;;6.10;99.90;;;;;;5009551;28;20050;-79
2022/01/05 12:32:59;;;;;;;1.98;1.40;;;6.10;99.90;;;;;;4999450;28;20053;-79
2022/01/05 12:35:27;;;;;;;20.52;1.35;;;6.10;99.90;;;;;;5009497;28;20046;-78
2022/01/05 12:37:56;;;;;;;11.02;2.00;;;6.20;99.90;;;;;;5006620;28;20527;-78
2022/01/05 12:40:32;;;;;;;0.55;0.55;;;6.20;99.90;;;;;;5013576;28;20048;-78
2022/01/05 12:43:13;;;;;;;0.63;0.63;;;6.30;99.90;;;;;;5003120;28;20054;-78
2022/01/05 12:45:45;;;;;;;2.50;0.70;;;6.40;99.90;;;;;;5010181;28;20057;-78
2022/01/05 12:48:33;;;;;;;9.85;2.05;;;6.40;99.90;;;;;;5019797;28;20080;-79
2022/01/05 12:51:23;;;;;;;11.65;1.90;;;6.50;99.90;;;;;;5019406;28;20120;-81
2022/01/05 12:54:03;;;;;;;6.43;1.50;;;6.50;99.90;;;;;;5000989;28;20050;-79
2022/01/05 12:56:30;;;;;;;10.45;2.42;;;6.60;99.90;;;;;;5018170;28;20531;-79
2022/01/05 12:58:57;;;;;;;2.03;1.13;;;6.60;99.90;;;;;;5019057;28;20125;-79
2022/01/05 13:01:25;;;;;;;4.70;2.47;;;6.60;99.90;;;;;;5015570;28;20041;-78
2022/01/05 13:03:55;;;;;;;3.63;1.42;;;6.70;99.90;;;;;;5020072;28;20065;-78